sensor_id;sensor_type;location;lat;lon;timestamp;pressure;altitude;pressure_sealevel;temperature;humidity
47913;BME280;33676;51.006;17.180;2023-04-30T00:02:10;100339.23;;;10.66;90.99
47913;BME280;33676;51.006;17.180;2023-04-30T00:04:38;100349.80;;;10.65;90.77
47913;BME280;33676;51.006;17.180;2023-04-30T00:07:07;100349.91;;;10.63;90.69
47913;BME280;33676;51.006;17.180;2023-04-30T00:09:36;100352.52;;;10.63;90.65
47913;BME280;33676;51.006;17.180;2023-04-30T00:12:04;100352.23;;;10.62;90.54
47913;BME280;33676;51.006;17.180;2023-04-30T00:14:33;100357.05;;;10.61;90.46
47913;BME280;33676;51.006;17.180;2023-04-30T00:17:05;100354.67;;;10.60;90.30
47913;BME280;33676;51.006;17.180;2023-04-30T00:19:34;100352.44;;;10.59;90.31
47913;BME280;33676;51.006;17.180;2023-04-30T00:22:03;100353.23;;;10.58;90.33
47913;BME280;33676;51.006;17.180;2023-04-30T00:24:36;100355.80;;;10.57;90.35
47913;BME280;33676;51.006;17.180;2023-04-30T00:27:04;100355.08;;;10.55;90.18
47913;BME280;33676;51.006;17.180;2023-04-30T00:29:32;100356.07;;;10.53;90.10
47913;BME280;33676;51.006;17.180;2023-04-30T00:32:01;100356.64;;;10.52;90.11
47913;BME280;33676;51.006;17.180;2023-04-30T00:34:30;100356.33;;;10.52;90.10
47913;BME280;33676;51.006;17.180;2023-04-30T00:37:00;100355.80;;;10.50;90.07
47913;BME280;33676;51.006;17.180;2023-04-30T00:39:29;100356.35;;;10.50;89.94
47913;BME280;33676;51.006;17.180;2023-04-30T00:41:57;100360.40;;;10.49;90.04
47913;BME280;33676;51.006;17.180;2023-04-30T00:44:26;100363.42;;;10.48;90.02
47913;BME280;33676;51.006;17.180;2023-04-30T00:46:54;100365.59;;;10.48;89.83
47913;BME280;33676;51.006;17.180;2023-04-30T00:49:25;100366.61;;;10.46;89.91
47913;BME280;33676;51.006;17.180;2023-04-30T00:51:53;100370.67;;;10.45;89.97
47913;BME280;33676;51.006;17.180;2023-04-30T00:54:25;100368.49;;;10.44;89.83
47913;BME280;33676;51.006;17.180;2023-04-30T00:56:54;100373.42;;;10.43;89.72
47913;BME280;33676;51.006;17.180;2023-04-30T00:59:23;100374.64;;;10.41;89.68
47913;BME280;33676;51.006;17.180;2023-04-30T01:01:52;100382.00;;;10.41;89.64
47913;BME280;33676;51.006;17.180;2023-04-30T01:04:21;100381.50;;;10.41;89.75
47913;BME280;33676;51.006;17.180;2023-04-30T01:06:52;100385.83;;;10.39;89.56
47913;BME280;33676;51.006;17.180;2023-04-30T01:09:21;100387.89;;;10.37;89.60
47913;BME280;33676;51.006;17.180;2023-04-30T01:20:59;100397.68;;;10.33;89.54
47913;BME280;33676;51.006;17.180;2023-04-30T01:29:38;100400.80;;;10.28;89.34
47913;BME280;33676;51.006;17.180;2023-04-30T01:32:10;100400.58;;;10.27;89.25
47913;BME280;33676;51.006;17.180;2023-04-30T01:39:45;100411.27;;;10.24;89.20
47913;BME280;33676;51.006;17.180;2023-04-30T01:42:43;100411.69;;;10.23;89.18
47913;BME280;33676;51.006;17.180;2023-04-30T01:48:27;100414.25;;;10.21;89.11
47913;BME280;33676;51.006;17.180;2023-04-30T01:51:23;100413.34;;;10.19;89.08
47913;BME280;33676;51.006;17.180;2023-04-30T01:54:02;100413.10;;;10.18;89.10
47913;BME280;33676;51.006;17.180;2023-04-30T01:56:40;100414.86;;;10.15;89.05
47913;BME280;33676;51.006;17.180;2023-04-30T01:59:11;100418.37;;;10.13;88.94
47913;BME280;33676;51.006;17.180;2023-04-30T02:01:41;100421.50;;;10.10;88.93
47913;BME280;33676;51.006;17.180;2023-04-30T02:04:10;100421.34;;;10.08;88.77
47913;BME280;33676;51.006;17.180;2023-04-30T02:06:38;100421.02;;;10.05;88.80
47913;BME280;33676;51.006;17.180;2023-04-30T02:09:08;100427.16;;;10.03;88.80
47913;BME280;33676;51.006;17.180;2023-04-30T02:11:38;100427.58;;;9.99;88.81
47913;BME280;33676;51.006;17.180;2023-04-30T02:14:06;100426.29;;;9.95;88.60
47913;BME280;33676;51.006;17.180;2023-04-30T02:16:35;100427.94;;;9.91;88.60
47913;BME280;33676;51.006;17.180;2023-04-30T02:19:07;100424.45;;;9.87;88.59
47913;BME280;33676;51.006;17.180;2023-04-30T02:21:36;100425.23;;;9.83;88.58
47913;BME280;33676;51.006;17.180;2023-04-30T02:24:05;100430.73;;;9.80;88.48
47913;BME280;33676;51.006;17.180;2023-04-30T02:26:34;100427.56;;;9.75;88.44
47913;BME280;33676;51.006;17.180;2023-04-30T02:29:03;100427.73;;;9.71;88.46
47913;BME280;33676;51.006;17.180;2023-04-30T02:31:31;100426.85;;;9.66;88.42
47913;BME280;33676;51.006;17.180;2023-04-30T02:34:00;100433.16;;;9.61;88.32
47913;BME280;33676;51.006;17.180;2023-04-30T02:36:28;100435.81;;;9.55;88.45
47913;BME280;33676;51.006;17.180;2023-04-30T02:38:58;100437.82;;;9.49;88.45
47913;BME280;33676;51.006;17.180;2023-04-30T02:41:27;100439.65;;;9.43;88.46
47913;BME280;33676;51.006;17.180;2023-04-30T02:43:55;100438.61;;;9.38;88.56
47913;BME280;33676;51.006;17.180;2023-04-30T02:46:24;100439.32;;;9.34;88.66
47913;BME280;33676;51.006;17.180;2023-04-30T02:48:53;100439.79;;;9.29;88.82
47913;BME280;33676;51.006;17.180;2023-04-30T02:51:21;100441.73;;;9.23;88.68
47913;BME280;33676;51.006;17.180;2023-04-30T02:53:50;100443.84;;;9.18;88.97
47913;BME280;33676;51.006;17.180;2023-04-30T02:56:19;100445.98;;;9.13;88.88
47913;BME280;33676;51.006;17.180;2023-04-30T02:58:48;100445.29;;;9.08;88.93
47913;BME280;33676;51.006;17.180;2023-04-30T03:01:17;100449.93;;;9.04;88.98
47913;BME280;33676;51.006;17.180;2023-04-30T03:03:45;100455.52;;;8.98;89.05
47913;BME280;33676;51.006;17.180;2023-04-30T03:06:14;100456.33;;;8.94;89.11
47913;BME280;33676;51.006;17.180;2023-04-30T03:08:52;100460.72;;;8.88;89.19
47913;BME280;33676;51.006;17.180;2023-04-30T03:11:20;100460.75;;;8.83;89.23
47913;BME280;33676;51.006;17.180;2023-04-30T03:13:50;100461.58;;;8.79;89.36
47913;BME280;33676;51.006;17.180;2023-04-30T03:16:20;100468.29;;;8.75;89.41
47913;BME280;33676;51.006;17.180;2023-04-30T03:32:15;100481.81;;;8.47;89.75
47913;BME280;33676;51.006;17.180;2023-04-30T03:34:43;100486.71;;;8.42;89.78
47913;BME280;33676;51.006;17.180;2023-04-30T03:37:12;100488.81;;;8.36;89.70
47913;BME280;33676;51.006;17.180;2023-04-30T03:39:43;100494.75;;;8.30;89.73
47913;BME280;33676;51.006;17.180;2023-04-30T03:42:11;100495.55;;;8.23;89.71
47913;BME280;33676;51.006;17.180;2023-04-30T03:44:40;100493.09;;;8.15;89.66
47913;BME280;33676;51.006;17.180;2023-04-30T03:47:09;100494.27;;;8.09;89.84
47913;BME280;33676;51.006;17.180;2023-04-30T03:49:38;100495.24;;;8.01;89.87
47913;BME280;33676;51.006;17.180;2023-04-30T03:52:06;100501.30;;;7.93;89.98
47913;BME280;33676;51.006;17.180;2023-04-30T03:54:37;100506.90;;;7.87;90.20
47913;BME280;33676;51.006;17.180;2023-04-30T03:57:10;100512.05;;;7.83;90.50
47913;BME280;33676;51.006;17.180;2023-04-30T03:59:41;100514.16;;;7.80;90.65
47913;BME280;33676;51.006;17.180;2023-04-30T04:02:10;100519.84;;;7.79;90.85
47913;BME280;33676;51.006;17.180;2023-04-30T04:04:40;100523.65;;;7.76;90.92
47913;BME280;33676;51.006;17.180;2023-04-30T04:07:08;100527.11;;;7.74;91.00
47913;BME280;33676;51.006;17.180;2023-04-30T04:09:38;100532.80;;;7.72;91.15
47913;BME280;33676;51.006;17.180;2023-04-30T04:12:08;100540.71;;;7.71;91.28
47913;BME280;33676;51.006;17.180;2023-04-30T04:14:36;100546.00;;;7.69;91.45
47913;BME280;33676;51.006;17.180;2023-04-30T04:17:05;100548.30;;;7.69;91.65
47913;BME280;33676;51.006;17.180;2023-04-30T04:19:33;100555.42;;;7.69;91.74
47913;BME280;33676;51.006;17.180;2023-04-30T04:22:02;100557.86;;;7.69;91.90
47913;BME280;33676;51.006;17.180;2023-04-30T04:24:32;100558.88;;;7.70;92.00
47913;BME280;33676;51.006;17.180;2023-04-30T04:27:01;100565.70;;;7.72;92.21
47913;BME280;33676;51.006;17.180;2023-04-30T04:29:32;100573.39;;;7.74;92.28
47913;BME280;33676;51.006;17.180;2023-04-30T04:32:01;100577.57;;;7.77;92.43
47913;BME280;33676;51.006;17.180;2023-04-30T04:34:33;100580.05;;;7.79;92.56
47913;BME280;33676;51.006;17.180;2023-04-30T04:37:05;100583.48;;;7.82;92.70
47913;BME280;33676;51.006;17.180;2023-04-30T04:39:33;100582.25;;;7.85;92.89
47913;BME280;33676;51.006;17.180;2023-04-30T04:42:03;100583.88;;;7.89;93.11
47913;BME280;33676;51.006;17.180;2023-04-30T04:44:32;100581.73;;;7.93;93.29
47913;BME280;33676;51.006;17.180;2023-04-30T04:47:00;100586.83;;;7.98;93.46
47913;BME280;33676;51.006;17.180;2023-04-30T04:49:31;100589.14;;;8.03;93.51
47913;BME280;33676;51.006;17.180;2023-04-30T04:52:00;100594.15;;;8.09;93.63
47913;BME280;33676;51.006;17.180;2023-04-30T04:54:29;100593.80;;;8.15;93.65
47913;BME280;33676;51.006;17.180;2023-04-30T04:56:58;100594.63;;;8.21;93.78
47913;BME280;33676;51.006;17.180;2023-04-30T04:59:26;100594.06;;;8.27;93.73
47913;BME280;33676;51.006;17.180;2023-04-30T05:01:55;100600.87;;;8.33;93.80
47913;BME280;33676;51.006;17.180;2023-04-30T05:04:23;100602.45;;;8.38;93.67
47913;BME280;33676;51.006;17.180;2023-04-30T05:06:52;100605.40;;;8.43;93.47
47913;BME280;33676;51.006;17.180;2023-04-30T05:09:21;100609.16;;;8.50;93.36
47913;BME280;33676;51.006;17.180;2023-04-30T05:11:51;100614.47;;;8.56;93.03
47913;BME280;33676;51.006;17.180;2023-04-30T05:14:20;100617.06;;;8.65;92.88
47913;BME280;33676;51.006;17.180;2023-04-30T05:16:48;100616.71;;;8.74;92.60
47913;BME280;33676;51.006;17.180;2023-04-30T05:19:17;100617.30;;;8.80;92.80
47913;BME280;33676;51.006;17.180;2023-04-30T05:21:46;100616.94;;;8.88;92.69
47913;BME280;33676;51.006;17.180;2023-04-30T05:24:14;100620.22;;;8.97;92.73
47913;BME280;33676;51.006;17.180;2023-04-30T05:26:43;100624.42;;;9.04;92.49
47913;BME280;33676;51.006;17.180;2023-04-30T05:29:11;100626.45;;;9.11;92.09
47913;BME280;33676;51.006;17.180;2023-04-30T05:31:42;100630.31;;;9.18;91.65
47913;BME280;33676;51.006;17.180;2023-04-30T05:34:11;100628.88;;;9.24;91.22
47913;BME280;33676;51.006;17.180;2023-04-30T05:36:39;100631.33;;;9.29;90.71
47913;BME280;33676;51.006;17.180;2023-04-30T05:39:10;100629.19;;;9.35;90.39
47913;BME280;33676;51.006;17.180;2023-04-30T05:41:39;100630.91;;;9.43;90.22
47913;BME280;33676;51.006;17.180;2023-04-30T05:44:07;100634.02;;;9.53;90.10
47913;BME280;33676;51.006;17.180;2023-04-30T05:46:36;100638.27;;;9.63;90.00
47913;BME280;33676;51.006;17.180;2023-04-30T05:49:04;100636.61;;;9.69;89.59
47913;BME280;33676;51.006;17.180;2023-04-30T05:51:33;100637.58;;;9.73;89.39
47913;BME280;33676;51.006;17.180;2023-04-30T05:54:01;100640.05;;;9.75;88.82
47913;BME280;33676;51.006;17.180;2023-04-30T05:56:30;100638.13;;;9.75;88.66
47913;BME280;33676;51.006;17.180;2023-04-30T05:58:58;100636.32;;;9.76;88.43
47913;BME280;33676;51.006;17.180;2023-04-30T06:01:30;100633.66;;;9.77;88.38
47913;BME280;33676;51.006;17.180;2023-04-30T06:04:04;100638.58;;;9.78;88.22
47913;BME280;33676;51.006;17.180;2023-04-30T06:06:32;100645.41;;;9.81;88.21
47913;BME280;33676;51.006;17.180;2023-04-30T06:09:01;100651.61;;;9.84;88.13
47913;BME280;33676;51.006;17.180;2023-04-30T06:11:30;100652.54;;;9.86;87.91
47913;BME280;33676;51.006;17.180;2023-04-30T06:13:58;100652.08;;;9.85;87.84
47913;BME280;33676;51.006;17.180;2023-04-30T06:16:27;100655.08;;;9.89;88.00
47913;BME280;33676;51.006;17.180;2023-04-30T06:18:56;100656.86;;;9.94;87.88
47913;BME280;33676;51.006;17.180;2023-04-30T06:21:24;100659.60;;;10.00;88.17
47913;BME280;33676;51.006;17.180;2023-04-30T06:23:53;100655.93;;;10.07;88.13
47913;BME280;33676;51.006;17.180;2023-04-30T06:26:27;100664.31;;;10.15;88.05
47913;BME280;33676;51.006;17.180;2023-04-30T06:28:56;100668.83;;;10.21;87.71
47913;BME280;33676;51.006;17.180;2023-04-30T06:31:27;100666.20;;;10.23;87.45
47913;BME280;33676;51.006;17.180;2023-04-30T06:33:58;100664.38;;;10.30;87.61
47913;BME280;33676;51.006;17.180;2023-04-30T06:36:35;100667.02;;;10.36;87.48
47913;BME280;33676;51.006;17.180;2023-04-30T06:39:05;100669.51;;;10.43;87.12
47913;BME280;33676;51.006;17.180;2023-04-30T06:41:34;100668.27;;;10.48;86.93
47913;BME280;33676;51.006;17.180;2023-04-30T06:44:02;100665.33;;;10.55;87.21
47913;BME280;33676;51.006;17.180;2023-04-30T06:46:31;100665.70;;;10.62;87.01
47913;BME280;33676;51.006;17.180;2023-04-30T06:49:19;100660.73;;;10.75;87.05
47913;BME280;33676;51.006;17.180;2023-04-30T06:51:48;100668.55;;;10.83;87.25
47913;BME280;33676;51.006;17.180;2023-04-30T06:54:16;100673.96;;;10.92;86.93
47913;BME280;33676;51.006;17.180;2023-04-30T06:56:45;100670.41;;;11.00;86.53
47913;BME280;33676;51.006;17.180;2023-04-30T06:59:15;100674.92;;;11.10;86.72
47913;BME280;33676;51.006;17.180;2023-04-30T07:01:49;100680.41;;;11.21;85.97
47913;BME280;33676;51.006;17.180;2023-04-30T07:04:18;100676.20;;;11.33;85.94
47913;BME280;33676;51.006;17.180;2023-04-30T07:06:47;100682.92;;;11.50;85.71
47913;BME280;33676;51.006;17.180;2023-04-30T07:09:16;100681.34;;;11.67;85.75
47913;BME280;33676;51.006;17.180;2023-04-30T07:11:44;100682.40;;;11.81;85.68
47913;BME280;33676;51.006;17.180;2023-04-30T07:14:13;100693.98;;;11.89;85.01
47913;BME280;33676;51.006;17.180;2023-04-30T07:16:41;100687.13;;;11.97;84.95
47913;BME280;33676;51.006;17.180;2023-04-30T07:19:10;100690.65;;;12.05;84.88
47913;BME280;33676;51.006;17.180;2023-04-30T07:21:38;100690.11;;;12.14;84.66
47913;BME280;33676;51.006;17.180;2023-04-30T07:24:07;100689.35;;;12.26;85.18
47913;BME280;33676;51.006;17.180;2023-04-30T07:26:39;100685.88;;;12.41;84.87
47913;BME280;33676;51.006;17.180;2023-04-30T07:29:11;100691.55;;;12.51;83.49
47913;BME280;33676;51.006;17.180;2023-04-30T07:31:39;100689.10;;;12.58;83.54
47913;BME280;33676;51.006;17.180;2023-04-30T07:34:08;100687.06;;;12.68;83.48
47913;BME280;33676;51.006;17.180;2023-04-30T07:36:38;100691.72;;;12.80;83.36
47913;BME280;33676;51.006;17.180;2023-04-30T07:39:07;100693.16;;;12.88;82.55
47913;BME280;33676;51.006;17.180;2023-04-30T07:41:37;100695.09;;;12.90;82.17
47913;BME280;33676;51.006;17.180;2023-04-30T07:44:05;100692.51;;;12.94;81.70
47913;BME280;33676;51.006;17.180;2023-04-30T07:46:34;100695.69;;;13.02;81.85
47913;BME280;33676;51.006;17.180;2023-04-30T07:49:06;100700.20;;;13.13;81.11
47913;BME280;33676;51.006;17.180;2023-04-30T07:51:36;100697.30;;;13.21;80.92
47913;BME280;33676;51.006;17.180;2023-04-30T07:54:05;100698.82;;;13.31;80.52
47913;BME280;33676;51.006;17.180;2023-04-30T07:56:34;100700.21;;;13.45;80.77
47913;BME280;33676;51.006;17.180;2023-04-30T07:59:03;100703.44;;;13.61;80.65
47913;BME280;33676;51.006;17.180;2023-04-30T08:01:34;100706.89;;;13.76;80.73
47913;BME280;33676;51.006;17.180;2023-04-30T08:04:04;100711.33;;;13.93;80.39
47913;BME280;33676;51.006;17.180;2023-04-30T08:06:32;100709.31;;;14.10;80.12
47913;BME280;33676;51.006;17.180;2023-04-30T08:09:01;100710.64;;;14.25;79.75
47913;BME280;33676;51.006;17.180;2023-04-30T08:11:30;100717.48;;;14.33;78.97
47913;BME280;33676;51.006;17.180;2023-04-30T08:13:59;100719.73;;;14.34;78.04
47913;BME280;33676;51.006;17.180;2023-04-30T08:16:27;100713.83;;;14.35;77.99
47913;BME280;33676;51.006;17.180;2023-04-30T08:18:56;100715.86;;;14.40;78.11
47913;BME280;33676;51.006;17.180;2023-04-30T08:21:27;100712.66;;;14.40;77.62
47913;BME280;33676;51.006;17.180;2023-04-30T08:23:56;100717.61;;;14.36;76.70
47913;BME280;33676;51.006;17.180;2023-04-30T08:26:24;100721.58;;;14.25;75.37
47913;BME280;33676;51.006;17.180;2023-04-30T08:28:53;100716.16;;;14.06;74.87
47913;BME280;33676;51.006;17.180;2023-04-30T08:31:21;100718.52;;;13.91;74.45
47913;BME280;33676;51.006;17.180;2023-04-30T08:33:50;100719.43;;;13.80;74.64
47913;BME280;33676;51.006;17.180;2023-04-30T08:36:18;100724.46;;;13.77;74.90
47913;BME280;33676;51.006;17.180;2023-04-30T08:38:46;100722.15;;;13.79;75.03
47913;BME280;33676;51.006;17.180;2023-04-30T08:41:15;100710.77;;;13.87;75.68
47913;BME280;33676;51.006;17.180;2023-04-30T08:43:44;100715.47;;;13.98;75.61
47913;BME280;33676;51.006;17.180;2023-04-30T08:46:13;100718.44;;;13.98;74.87
47913;BME280;33676;51.006;17.180;2023-04-30T08:48:44;100718.65;;;14.04;75.04
47913;BME280;33676;51.006;17.180;2023-04-30T08:51:15;100718.95;;;14.06;74.27
47913;BME280;33676;51.006;17.180;2023-04-30T08:53:44;100721.59;;;14.10;74.04
47913;BME280;33676;51.006;17.180;2023-04-30T08:56:13;100729.35;;;14.20;74.45
47913;BME280;33676;51.006;17.180;2023-04-30T08:58:42;100729.62;;;14.23;73.36
47913;BME280;33676;51.006;17.180;2023-04-30T09:01:12;100728.46;;;14.18;72.86
47913;BME280;33676;51.006;17.180;2023-04-30T09:03:41;100729.19;;;14.16;72.37
47913;BME280;33676;51.006;17.180;2023-04-30T09:06:15;100727.36;;;14.15;72.68
47913;BME280;33676;51.006;17.180;2023-04-30T09:08:48;100731.18;;;14.23;73.13
47913;BME280;33676;51.006;17.180;2023-04-30T09:11:29;100726.76;;;14.38;72.30
47913;BME280;33676;51.006;17.180;2023-04-30T09:14:00;100734.69;;;14.50;71.86
47913;BME280;33676;51.006;17.180;2023-04-30T09:18:21;100730.85;;;14.66;71.72
47913;BME280;33676;51.006;17.180;2023-04-30T09:21:07;100740.09;;;14.78;71.42
47913;BME280;33676;51.006;17.180;2023-04-30T09:23:36;100739.33;;;14.95;71.96
47913;BME280;33676;51.006;17.180;2023-04-30T09:26:37;100747.38;;;15.07;69.87
47913;BME280;33676;51.006;17.180;2023-04-30T09:29:42;100743.70;;;15.20;69.59
47913;BME280;33676;51.006;17.180;2023-04-30T09:32:11;100746.30;;;15.39;69.61
47913;BME280;33676;51.006;17.180;2023-04-30T09:34:41;100741.03;;;15.60;69.77
47913;BME280;33676;51.006;17.180;2023-04-30T09:37:10;100743.90;;;15.86;69.63
47913;BME280;33676;51.006;17.180;2023-04-30T09:39:52;100746.30;;;16.09;68.89
47913;BME280;33676;51.006;17.180;2023-04-30T09:42:21;100742.60;;;16.39;69.07
47913;BME280;33676;51.006;17.180;2023-04-30T09:44:52;100741.59;;;16.70;68.75
47913;BME280;33676;51.006;17.180;2023-04-30T09:47:20;100739.08;;;16.94;67.88
47913;BME280;33676;51.006;17.180;2023-04-30T09:49:50;100738.77;;;17.11;67.93
47913;BME280;33676;51.006;17.180;2023-04-30T09:52:20;100734.37;;;17.21;67.19
47913;BME280;33676;51.006;17.180;2023-04-30T09:54:48;100735.64;;;17.29;66.18
47913;BME280;33676;51.006;17.180;2023-04-30T09:57:20;100736.28;;;17.38;66.32
47913;BME280;33676;51.006;17.180;2023-04-30T09:59:51;100730.80;;;17.50;66.15
47913;BME280;33676;51.006;17.180;2023-04-30T10:02:21;100725.75;;;17.69;65.84
47913;BME280;33676;51.006;17.180;2023-04-30T10:04:55;100729.39;;;17.76;65.36
47913;BME280;33676;51.006;17.180;2023-04-30T10:07:33;100729.86;;;17.82;65.76
47913;BME280;33676;51.006;17.180;2023-04-30T10:10:09;100728.35;;;18.08;66.03
47913;BME280;33676;51.006;17.180;2023-04-30T10:12:50;100722.24;;;18.24;65.70
47913;BME280;33676;51.006;17.180;2023-04-30T10:15:26;100724.84;;;18.36;65.18
47913;BME280;33676;51.006;17.180;2023-04-30T10:18:02;100723.08;;;18.36;63.88
47913;BME280;33676;51.006;17.180;2023-04-30T10:20:36;100720.73;;;18.33;62.55
47913;BME280;33676;51.006;17.180;2023-04-30T10:23:06;100720.30;;;18.26;62.05
47913;BME280;33676;51.006;17.180;2023-04-30T10:35:43;100711.29;;;18.86;63.68
47913;BME280;33676;51.006;17.180;2023-04-30T10:38:21;100712.91;;;19.19;63.83
47913;BME280;33676;51.006;17.180;2023-04-30T10:40:58;100709.80;;;19.49;63.07
47913;BME280;33676;51.006;17.180;2023-04-30T10:43:31;100713.08;;;19.68;62.61
47913;BME280;33676;51.006;17.180;2023-04-30T10:46:01;100715.17;;;19.81;61.79
47913;BME280;33676;51.006;17.180;2023-04-30T10:48:32;100717.08;;;19.98;61.77
47913;BME280;33676;51.006;17.180;2023-04-30T10:51:02;100712.98;;;20.04;60.46
47913;BME280;33676;51.006;17.180;2023-04-30T10:53:31;100709.00;;;20.08;60.64
47913;BME280;33676;51.006;17.180;2023-04-30T10:56:03;100706.68;;;20.25;61.01
47913;BME280;33676;51.006;17.180;2023-04-30T10:58:38;100705.10;;;20.52;61.03
47913;BME280;33676;51.006;17.180;2023-04-30T11:01:15;100706.11;;;20.73;60.10
47913;BME280;33676;51.006;17.180;2023-04-30T11:04:23;100709.83;;;20.90;59.93
47913;BME280;33676;51.006;17.180;2023-04-30T11:09:47;100699.89;;;21.45;60.09
47913;BME280;33676;51.006;17.180;2023-04-30T11:12:20;100699.84;;;21.83;60.30
47913;BME280;33676;51.006;17.180;2023-04-30T11:15:06;100700.37;;;22.21;60.22
47913;BME280;33676;51.006;17.180;2023-04-30T11:17:36;100697.55;;;22.72;60.31
47913;BME280;33676;51.006;17.180;2023-04-30T11:20:11;100696.73;;;23.13;59.55
47913;BME280;33676;51.006;17.180;2023-04-30T11:22:40;100702.89;;;23.23;57.83
47913;BME280;33676;51.006;17.180;2023-04-30T11:25:11;100699.96;;;23.15;57.17
47913;BME280;33676;51.006;17.180;2023-04-30T11:27:44;100698.81;;;23.28;57.32
47913;BME280;33676;51.006;17.180;2023-04-30T11:30:15;100704.52;;;23.49;56.95
47913;BME280;33676;51.006;17.180;2023-04-30T11:32:47;100702.44;;;23.64;56.91
47913;BME280;33676;51.006;17.180;2023-04-30T11:35:18;100704.49;;;23.69;55.77
47913;BME280;33676;51.006;17.180;2023-04-30T11:37:47;100700.64;;;23.77;56.12
47913;BME280;33676;51.006;17.180;2023-04-30T11:40:16;100700.32;;;24.10;56.63
47913;BME280;33676;51.006;17.180;2023-04-30T11:42:45;100697.27;;;24.60;57.27
47913;BME280;33676;51.006;17.180;2023-04-30T11:45:16;100695.98;;;24.92;56.78
47913;BME280;33676;51.006;17.180;2023-04-30T11:47:50;100695.15;;;24.77;55.78
47913;BME280;33676;51.006;17.180;2023-04-30T11:50:24;100698.27;;;24.65;54.83
47913;BME280;33676;51.006;17.180;2023-04-30T11:52:59;100699.60;;;24.65;54.11
47913;BME280;33676;51.006;17.180;2023-04-30T11:55:35;100698.80;;;24.52;53.66
47913;BME280;33676;51.006;17.180;2023-04-30T11:58:08;100700.37;;;24.74;54.05
47913;BME280;33676;51.006;17.180;2023-04-30T12:00:38;100706.12;;;25.02;52.74
47913;BME280;33676;51.006;17.180;2023-04-30T12:03:08;100702.05;;;24.92;51.50
47913;BME280;33676;51.006;17.180;2023-04-30T12:05:39;100698.92;;;24.97;52.33
47913;BME280;33676;51.006;17.180;2023-04-30T12:08:08;100702.21;;;25.29;52.45
47913;BME280;33676;51.006;17.180;2023-04-30T12:10:39;100699.23;;;25.51;51.96
47913;BME280;33676;51.006;17.180;2023-04-30T12:13:12;100704.73;;;25.48;49.87
47913;BME280;33676;51.006;17.180;2023-04-30T12:15:41;100701.45;;;25.17;49.17
47913;BME280;33676;51.006;17.180;2023-04-30T12:18:13;100704.34;;;25.18;49.51
47913;BME280;33676;51.006;17.180;2023-04-30T12:20:42;100702.02;;;25.15;48.60
47913;BME280;33676;51.006;17.180;2023-04-30T12:23:11;100700.42;;;25.23;49.68
47913;BME280;33676;51.006;17.180;2023-04-30T12:25:41;100696.21;;;25.54;50.63
47913;BME280;33676;51.006;17.180;2023-04-30T12:28:11;100691.20;;;25.91;50.99
47913;BME280;33676;51.006;17.180;2023-04-30T12:30:41;100691.78;;;26.39;51.21
47913;BME280;33676;51.006;17.180;2023-04-30T12:33:10;100692.14;;;26.63;50.82
47913;BME280;33676;51.006;17.180;2023-04-30T12:35:42;100694.30;;;26.85;50.47
47913;BME280;33676;51.006;17.180;2023-04-30T12:38:15;100691.97;;;27.09;49.95
47913;BME280;33676;51.006;17.180;2023-04-30T12:40:48;100693.66;;;27.21;48.46
47913;BME280;33676;51.006;17.180;2023-04-30T12:43:17;100693.93;;;26.92;47.00
47913;BME280;33676;51.006;17.180;2023-04-30T12:45:53;100692.00;;;26.73;47.63
47913;BME280;33676;51.006;17.180;2023-04-30T12:48:24;100684.88;;;27.00;48.42
47913;BME280;33676;51.006;17.180;2023-04-30T12:51:02;100688.61;;;27.32;48.59
47913;BME280;33676;51.006;17.180;2023-04-30T12:53:32;100684.98;;;27.66;48.60
47913;BME280;33676;51.006;17.180;2023-04-30T12:56:16;100683.87;;;27.95;48.51
47913;BME280;33676;51.006;17.180;2023-04-30T12:58:46;100686.06;;;28.37;48.87
47913;BME280;33676;51.006;17.180;2023-04-30T13:01:20;100683.42;;;28.76;48.41
47913;BME280;33676;51.006;17.180;2023-04-30T13:03:51;100686.88;;;28.99;47.50
47913;BME280;33676;51.006;17.180;2023-04-30T13:06:23;100680.98;;;29.05;47.25
47913;BME280;33676;51.006;17.180;2023-04-30T13:08:51;100681.90;;;29.27;47.57
47913;BME280;33676;51.006;17.180;2023-04-30T13:11:23;100680.30;;;29.64;47.69
47913;BME280;33676;51.006;17.180;2023-04-30T13:13:54;100675.65;;;30.05;47.82
47913;BME280;33676;51.006;17.180;2023-04-30T13:16:23;100680.34;;;30.47;47.57
47913;BME280;33676;51.006;17.180;2023-04-30T13:18:53;100681.05;;;30.74;46.74
47913;BME280;33676;51.006;17.180;2023-04-30T13:21:24;100680.44;;;30.77;45.69
47913;BME280;33676;51.006;17.180;2023-04-30T13:23:55;100682.84;;;30.74;45.40
47913;BME280;33676;51.006;17.180;2023-04-30T13:26:27;100685.75;;;30.76;45.11
47913;BME280;33676;51.006;17.180;2023-04-30T13:28:55;100681.75;;;30.85;45.37
47913;BME280;33676;51.006;17.180;2023-04-30T13:31:24;100680.23;;;31.19;45.70
47913;BME280;33676;51.006;17.180;2023-04-30T13:33:52;100680.77;;;31.65;45.28
47913;BME280;33676;51.006;17.180;2023-04-30T13:36:24;100677.91;;;31.77;44.55
47913;BME280;33676;51.006;17.180;2023-04-30T13:38:52;100677.50;;;31.86;44.38
47913;BME280;33676;51.006;17.180;2023-04-30T13:41:23;100675.91;;;32.09;44.41
47913;BME280;33676;51.006;17.180;2023-04-30T13:43:53;100672.83;;;32.54;44.81
47913;BME280;33676;51.006;17.180;2023-04-30T13:46:25;100675.82;;;33.00;44.60
47913;BME280;33676;51.006;17.180;2023-04-30T13:48:56;100676.89;;;33.29;43.91
47913;BME280;33676;51.006;17.180;2023-04-30T13:51:25;100680.05;;;33.29;43.11
47913;BME280;33676;51.006;17.180;2023-04-30T13:53:55;100673.23;;;33.35;43.38